createdAt,value
2023-03-19T00:02:22.590Z,89.80
2023-03-19T00:04:50.995Z,88.30
2023-03-19T00:07:19.300Z,88.40
2023-03-19T00:09:48.510Z,88.20
2023-03-19T00:12:17.110Z,88.90
2023-03-19T00:14:45.777Z,87.80
2023-03-19T00:17:15.530Z,87.40
2023-03-19T00:19:43.924Z,88.70
2023-03-19T00:22:12.330Z,87.80
2023-03-19T00:24:40.672Z,88.20
2023-03-19T00:27:09.048Z,88.10
2023-03-19T00:29:37.549Z,87.40
2023-03-19T00:32:06.387Z,87.50
2023-03-19T00:34:36.118Z,88.30
2023-03-19T00:37:04.531Z,88.30
2023-03-19T00:39:32.973Z,87.80
2023-03-19T00:42:01.560Z,88.00
2023-03-19T00:44:29.930Z,88.30
2023-03-19T00:46:58.250Z,88.80
2023-03-19T00:49:26.548Z,88.90
2023-03-19T00:51:56.259Z,89.10
2023-03-19T00:54:24.590Z,89.40
2023-03-19T00:56:52.871Z,90.00
2023-03-19T00:59:21.246Z,90.20
2023-03-19T01:01:49.637Z,90.20
2023-03-19T01:04:18.222Z,90.20
2023-03-19T01:06:46.790Z,90.50
2023-03-19T01:09:16.509Z,90.20
2023-03-19T01:11:44.836Z,90.50
2023-03-19T01:14:13.167Z,90.80
2023-03-19T01:16:41.648Z,90.80
2023-03-19T01:19:10.281Z,91.20
2023-03-19T01:21:38.718Z,90.90
2023-03-19T01:24:07.368Z,91.20
2023-03-19T01:26:37.163Z,91.10
2023-03-19T01:29:17.040Z,91.00
2023-03-19T01:31:45.362Z,90.90
2023-03-19T01:34:33.369Z,91.10
2023-03-19T01:37:10.355Z,90.90
2023-03-19T01:39:40.615Z,90.90
2023-03-19T01:42:14.826Z,91.00
2023-03-19T01:45:04.440Z,91.00
2023-03-19T01:47:43.985Z,90.70
2023-03-19T01:50:25.073Z,91.10
2023-03-19T01:53:05.973Z,91.00
2023-03-19T01:55:58.212Z,91.10
2023-03-19T01:58:41.298Z,91.10
2023-03-19T02:01:19.186Z,91.20
2023-03-19T02:03:52.743Z,91.10
2023-03-19T02:06:28.439Z,91.20
2023-03-19T02:08:59.158Z,91.40
2023-03-19T02:11:28.189Z,91.20
2023-03-19T02:13:58.161Z,91.60
2023-03-19T02:16:27.248Z,91.50
2023-03-19T02:18:56.132Z,91.80
2023-03-19T02:21:24.726Z,91.20
2023-03-19T02:24:00.866Z,91.30
2023-03-19T02:27:03.361Z,90.90
2023-03-19T02:29:33.401Z,91.10
2023-03-19T02:32:03.735Z,91.00
2023-03-19T02:34:37.781Z,91.20
2023-03-19T02:37:12.630Z,91.10
2023-03-19T02:39:48.252Z,91.10
2023-03-19T02:42:19.712Z,90.80
2023-03-19T02:44:48.341Z,90.90
2023-03-19T02:47:17.150Z,91.30
2023-03-19T02:49:46.120Z,91.40
2023-03-19T02:52:14.900Z,91.60
2023-03-19T02:54:43.229Z,91.20
2023-03-19T02:57:11.966Z,91.60
2023-03-19T02:59:41.953Z,91.70
2023-03-19T03:02:10.865Z,91.30
2023-03-19T03:04:39.506Z,91.50
2023-03-19T03:07:08.574Z,91.80
2023-03-19T03:09:36.928Z,91.60
2023-03-19T03:12:06.169Z,92.00
2023-03-19T03:14:35.185Z,91.90
2023-03-19T03:17:04.883Z,91.80
2023-03-19T03:19:33.921Z,91.80
2023-03-19T03:22:02.383Z,91.70
2023-03-19T03:24:31.165Z,92.00
2023-03-19T03:26:59.483Z,91.80
2023-03-19T03:29:28.068Z,92.00
2023-03-19T03:31:56.627Z,92.00
2023-03-19T03:34:26.373Z,92.10
2023-03-19T03:36:54.701Z,91.70
2023-03-19T03:39:23.182Z,91.90
2023-03-19T03:41:51.715Z,91.80
2023-03-19T03:44:20.391Z,91.90
2023-03-19T03:46:49.451Z,92.30
2023-03-19T03:49:17.834Z,92.20
2023-03-19T03:51:47.672Z,92.00
2023-03-19T03:54:16.497Z,92.60
2023-03-19T03:56:44.852Z,92.50
2023-03-19T03:59:13.317Z,92.70
2023-03-19T04:01:41.655Z,92.50
2023-03-19T04:04:10.743Z,92.40
2023-03-19T04:06:39.060Z,93.10
2023-03-19T04:09:32.215Z,93.00
2023-03-19T04:12:01.063Z,93.20
2023-03-19T04:14:29.484Z,92.80
2023-03-19T04:16:58.594Z,93.30
2023-03-19T04:19:27.278Z,93.40
2023-03-19T04:21:55.727Z,93.60
2023-03-19T04:24:24.295Z,94.20
2023-03-19T04:26:53.996Z,93.80
2023-03-19T04:29:23.068Z,93.50
2023-03-19T04:31:52.604Z,93.70
2023-03-19T04:34:20.996Z,93.80
2023-03-19T04:36:50.018Z,94.00
2023-03-19T04:39:18.582Z,93.50
2023-03-19T04:41:46.967Z,93.90
2023-03-19T04:44:28.494Z,93.70
2023-03-19T04:46:57.235Z,94.10
2023-03-19T04:49:27.318Z,94.30
2023-03-19T04:51:57.757Z,94.30
2023-03-19T04:54:26.116Z,94.90
2023-03-19T04:56:54.484Z,94.00
2023-03-19T04:59:25.459Z,94.30
2023-03-19T05:01:55.720Z,94.30
2023-03-19T05:04:25.373Z,94.10
2023-03-19T05:06:58.234Z,94.20
2023-03-19T05:09:26.627Z,94.20
2023-03-19T05:11:55.060Z,94.60
2023-03-19T05:14:24.358Z,94.50
2023-03-19T05:17:30.044Z,94.70
2023-03-19T05:20:21.340Z,94.60
2023-03-19T05:22:55.749Z,94.60
2023-03-19T05:25:35.243Z,94.90
2023-03-19T05:28:05.007Z,94.90
2023-03-19T05:30:33.597Z,95.00
2023-03-19T05:33:28.972Z,95.00
2023-03-19T05:35:58.402Z,94.90
2023-03-19T05:38:46.837Z,94.80
2023-03-19T05:41:21.792Z,95.20
2023-03-19T05:43:58.628Z,94.90
2023-03-19T05:46:48.134Z,95.00
2023-03-19T05:49:19.887Z,94.70
2023-03-19T05:51:48.219Z,94.80
2023-03-19T05:54:16.665Z,94.60
2023-03-19T05:57:00.944Z,94.70
2023-03-19T05:59:40.324Z,94.30
2023-03-19T06:02:26.010Z,94.20
2023-03-19T06:05:09.780Z,94.10
2023-03-19T06:07:38.610Z,93.90
2023-03-19T06:10:13.120Z,93.60
2023-03-19T06:12:42.202Z,92.90
2023-03-19T06:15:33.901Z,92.80
2023-03-19T06:18:21.491Z,92.50
2023-03-19T06:20:51.528Z,92.40
2023-03-19T06:23:20.675Z,92.50
2023-03-19T06:25:48.963Z,92.50
2023-03-19T06:28:18.148Z,92.00
2023-03-19T06:30:46.958Z,91.90
2023-03-19T06:33:41.594Z,91.70
2023-03-19T06:36:12.077Z,92.70
2023-03-19T06:38:41.279Z,92.50
2023-03-19T06:41:09.541Z,92.10
2023-03-19T06:43:38.060Z,92.40
2023-03-19T06:46:08.803Z,92.20
2023-03-19T06:48:37.839Z,90.30
2023-03-19T06:51:07.234Z,84.20
2023-03-19T06:53:37.300Z,78.30
2023-03-19T06:56:05.976Z,77.00
2023-03-19T06:58:35.426Z,74.00
2023-03-19T07:01:03.740Z,73.60
2023-03-19T07:03:32.371Z,74.60
2023-03-19T07:06:00.758Z,74.10
2023-03-19T07:08:30.005Z,75.50
2023-03-19T07:11:05.294Z,77.00
2023-03-19T07:13:33.789Z,79.60
2023-03-19T07:16:02.133Z,79.80
2023-03-19T07:18:30.386Z,80.00
2023-03-19T07:20:58.765Z,81.10
2023-03-19T07:23:27.095Z,81.80
2023-03-19T07:25:55.600Z,80.70
2023-03-19T07:28:25.679Z,81.70
2023-03-19T07:30:54.364Z,82.50
2023-03-19T07:33:23.108Z,83.10
2023-03-19T07:35:51.893Z,82.20
2023-03-19T07:38:20.308Z,82.00
2023-03-19T07:41:01.435Z,83.30
2023-03-19T07:43:32.149Z,82.70
2023-03-19T07:46:01.080Z,83.00
2023-03-19T07:48:29.488Z,83.30
2023-03-19T07:50:57.785Z,83.10
2023-03-19T07:53:26.336Z,83.30
2023-03-19T07:55:54.614Z,82.50
2023-03-19T07:58:22.897Z,81.80
2023-03-19T08:00:52.786Z,82.40
2023-03-19T08:03:21.138Z,81.80
2023-03-19T08:05:50.308Z,82.30
2023-03-19T08:08:19.277Z,82.80
2023-03-19T08:10:50.901Z,80.30
2023-03-19T08:13:19.217Z,79.40
2023-03-19T08:15:47.517Z,80.30
2023-03-19T08:18:17.151Z,79.20
2023-03-19T08:20:46.258Z,75.50
2023-03-19T08:23:14.887Z,75.40
2023-03-19T08:25:43.541Z,73.80
2023-03-19T08:28:11.988Z,73.00
2023-03-19T08:30:41.059Z,73.60
2023-03-19T08:33:09.459Z,73.20
2023-03-19T08:35:39.240Z,73.00
2023-03-19T08:38:07.507Z,72.80
2023-03-19T08:40:36.411Z,72.40
2023-03-19T08:43:05.251Z,72.70
2023-03-19T08:45:33.734Z,73.70
2023-03-19T08:48:01.985Z,73.60
2023-03-19T08:50:30.422Z,73.60
2023-03-19T08:53:00.077Z,75.70
2023-03-19T08:55:28.309Z,73.60
2023-03-19T08:57:56.524Z,75.10
2023-03-19T09:00:25.167Z,74.40
2023-03-19T09:02:53.479Z,75.30
2023-03-19T09:05:23.355Z,73.80
2023-03-19T09:07:52.225Z,74.20
2023-03-19T09:10:22.000Z,75.10
2023-03-19T09:12:50.288Z,75.90
2023-03-19T09:15:18.565Z,74.40
2023-03-19T09:17:46.874Z,74.20
2023-03-19T09:20:15.150Z,75.00
2023-03-19T09:22:43.544Z,74.20
2023-03-19T09:25:12.327Z,74.90
2023-03-19T09:27:42.107Z,74.80
2023-03-19T09:30:11.940Z,74.50
2023-03-19T09:32:40.857Z,74.10
2023-03-19T09:35:12.538Z,74.50
2023-03-19T09:37:40.928Z,72.60
2023-03-19T09:40:16.368Z,73.10
2023-03-19T09:42:59.141Z,73.80
2023-03-19T09:45:29.925Z,72.10
2023-03-19T09:48:04.356Z,72.10
2023-03-19T09:50:34.847Z,71.50
2023-03-19T09:53:08.596Z,71.40
2023-03-19T09:55:45.118Z,73.40
2023-03-19T09:58:18.966Z,71.20
2023-03-19T10:00:50.261Z,71.10
2023-03-19T10:03:44.627Z,72.10
2023-03-19T10:06:26.652Z,71.40
2023-03-19T10:09:13.523Z,71.40
2023-03-19T10:11:56.377Z,72.80
2023-03-19T10:14:50.482Z,72.90
2023-03-19T10:17:22.141Z,74.20
2023-03-19T10:19:54.232Z,73.80
2023-03-19T10:22:27.279Z,73.80
2023-03-19T10:24:58.675Z,73.00
2023-03-19T10:27:29.817Z,71.40
2023-03-19T10:29:59.573Z,71.50
2023-03-19T10:32:37.355Z,72.30
2023-03-19T10:35:11.506Z,70.10
2023-03-19T10:37:39.993Z,71.90
2023-03-19T10:40:19.770Z,70.20
2023-03-19T10:43:02.675Z,70.10
2023-03-19T10:45:35.901Z,70.20
2023-03-19T10:48:06.531Z,70.70
2023-03-19T10:50:38.827Z,69.30
2023-03-19T10:53:22.533Z,69.80
2023-03-19T10:55:55.369Z,67.60
2023-03-19T10:58:27.247Z,69.70
2023-03-19T11:01:00.693Z,67.60
2023-03-19T11:03:33.096Z,68.00
2023-03-19T11:06:18.366Z,68.40
2023-03-19T11:08:55.402Z,67.40
2023-03-19T11:11:33.976Z,70.10
2023-03-19T11:14:10.104Z,67.60
2023-03-19T11:16:56.951Z,67.70
2023-03-19T11:19:26.373Z,68.80
2023-03-19T11:22:04.180Z,69.30
2023-03-19T11:24:38.705Z,67.00
2023-03-19T11:27:08.141Z,65.60
2023-03-19T11:29:41.810Z,67.50
2023-03-19T11:32:26.603Z,68.70
2023-03-19T11:35:00.207Z,67.00
2023-03-19T11:37:34.650Z,66.10
2023-03-19T11:40:14.497Z,65.60
2023-03-19T11:43:07.536Z,62.10
2023-03-19T11:45:41.979Z,63.80
2023-03-19T11:48:28.880Z,64.90
2023-03-19T11:51:01.740Z,64.70
2023-03-19T11:53:36.602Z,65.20
2023-03-19T11:56:15.521Z,63.50
2023-03-19T11:59:07.817Z,64.30
2023-03-19T12:01:54.158Z,64.50
2023-03-19T12:04:49.427Z,64.10
2023-03-19T12:07:26.577Z,65.80
2023-03-19T12:10:09.015Z,65.60
2023-03-19T12:12:44.548Z,65.00
2023-03-19T12:15:22.504Z,63.80
2023-03-19T12:18:01.772Z,64.90
2023-03-19T12:20:39.399Z,64.70
2023-03-19T12:23:13.628Z,66.00
2023-03-19T12:26:06.198Z,66.30
2023-03-19T12:28:36.941Z,66.70
2023-03-19T12:31:27.762Z,64.90
2023-03-19T12:34:09.815Z,64.70
2023-03-19T12:36:47.263Z,65.40
2023-03-19T12:39:19.484Z,66.60
2023-03-19T12:41:50.398Z,65.50
2023-03-19T12:44:23.875Z,66.00
2023-03-19T12:46:59.285Z,65.30
2023-03-19T12:49:31.678Z,67.30
2023-03-19T12:52:07.161Z,65.30
2023-03-19T12:54:41.490Z,65.90
2023-03-19T12:57:13.493Z,66.10
2023-03-19T12:59:48.855Z,65.30
2023-03-19T13:02:23.255Z,65.70
2023-03-19T13:04:57.515Z,64.90
2023-03-19T13:07:34.373Z,65.60
2023-03-19T13:10:08.216Z,64.10
2023-03-19T13:12:38.765Z,65.80
2023-03-19T13:15:12.952Z,65.20
2023-03-19T13:17:51.177Z,66.30
2023-03-19T13:20:25.309Z,68.00
2023-03-19T13:22:57.361Z,67.90
2023-03-19T13:25:32.402Z,65.90
2023-03-19T13:28:00.736Z,67.40
2023-03-19T13:30:30.011Z,64.60
2023-03-19T13:33:05.183Z,64.60
2023-03-19T13:35:40.754Z,66.10
2023-03-19T13:38:19.634Z,65.70
2023-03-19T13:40:50.302Z,65.60
2023-03-19T13:46:45.164Z,65.00
2023-03-19T13:49:29.151Z,67.10
2023-03-19T13:52:01.454Z,69.30
2023-03-19T13:54:42.722Z,69.30
2023-03-19T13:57:35.761Z,69.60
2023-03-19T14:00:36.981Z,68.70
2023-03-19T14:03:17.848Z,68.60
2023-03-19T14:05:47.740Z,67.50
2023-03-19T14:08:20.807Z,64.70
2023-03-19T14:10:53.209Z,66.30
2023-03-19T14:13:31.470Z,66.80
2023-03-19T14:16:08.218Z,65.70
2023-03-19T14:18:42.251Z,64.70
2023-03-19T14:21:16.257Z,66.30
2023-03-19T14:23:55.040Z,66.10
2023-03-19T14:26:28.858Z,68.10
2023-03-19T14:29:01.421Z,68.00
2023-03-19T14:31:35.322Z,68.00
2023-03-19T14:34:08.952Z,66.90
2023-03-19T14:36:39.401Z,67.40
2023-03-19T14:39:14.609Z,66.50
2023-03-19T14:41:47.490Z,65.80
2023-03-19T14:44:55.735Z,66.90
2023-03-19T14:47:46.463Z,67.30
2023-03-19T14:50:31.069Z,69.60
2023-03-19T14:53:04.357Z,67.90
2023-03-19T14:55:37.561Z,68.70
2023-03-19T14:58:07.352Z,65.00
2023-03-19T15:00:44.766Z,66.10
2023-03-19T15:03:23.120Z,67.20
2023-03-19T15:05:57.691Z,68.10
2023-03-19T15:08:26.777Z,66.80
2023-03-19T15:11:07.548Z,69.30
2023-03-19T15:13:48.250Z,70.50
2023-03-19T15:16:29.658Z,71.50
2023-03-19T15:18:58.248Z,72.30
2023-03-19T15:21:26.785Z,73.50
2023-03-19T15:23:55.313Z,74.20
2023-03-19T15:26:32.144Z,74.60
2023-03-19T15:29:04.263Z,75.20
2023-03-19T15:31:51.485Z,75.30
2023-03-19T15:34:24.083Z,75.80
2023-03-19T15:36:56.365Z,76.80
2023-03-19T15:39:28.216Z,77.70
2023-03-19T15:41:57.595Z,77.90
2023-03-19T15:44:33.285Z,77.30
2023-03-19T15:47:05.672Z,78.50
2023-03-19T15:49:39.052Z,78.10
2023-03-19T15:52:12.313Z,78.80
2023-03-19T15:54:41.287Z,79.10
2023-03-19T15:57:11.345Z,79.40
2023-03-19T15:59:42.083Z,79.50
2023-03-19T16:02:20.073Z,79.70
2023-03-19T16:05:18.070Z,79.50
2023-03-19T16:10:39.460Z,80.50
2023-03-19T16:13:30.159Z,80.70
2023-03-19T16:16:06.682Z,80.90
2023-03-19T16:18:45.694Z,80.70
2023-03-19T16:21:17.927Z,81.00
2023-03-19T16:23:51.059Z,81.20
2023-03-19T16:26:23.180Z,81.30
2023-03-19T16:29:00.071Z,81.80
2023-03-19T16:31:32.252Z,81.90
2023-03-19T16:34:02.538Z,82.90
2023-03-19T16:36:33.137Z,82.80
2023-03-19T16:39:24.489Z,83.00
2023-03-19T16:42:17.194Z,83.20
2023-03-19T16:44:49.481Z,83.60
2023-03-19T16:47:19.159Z,83.50
2023-03-19T16:49:48.047Z,83.50
2023-03-19T16:52:20.007Z,83.90
2023-03-19T16:54:48.843Z,84.60
2023-03-19T16:57:18.289Z,84.30
2023-03-19T16:59:48.326Z,84.30
2023-03-19T17:02:19.773Z,84.70
2023-03-19T17:04:48.422Z,85.90
2023-03-19T17:07:16.951Z,85.60
2023-03-19T17:09:45.359Z,86.40
2023-03-19T17:12:17.698Z,88.30
2023-03-19T17:14:46.301Z,87.60
2023-03-19T17:17:21.964Z,88.20
2023-03-19T17:19:51.533Z,89.50
2023-03-19T17:22:19.939Z,88.70
2023-03-19T17:24:48.390Z,88.40
2023-03-19T17:27:16.768Z,88.10
2023-03-19T17:29:45.096Z,88.70
2023-03-19T17:32:18.664Z,89.30
2023-03-19T17:34:48.480Z,89.50
2023-03-19T17:37:16.760Z,89.90
2023-03-19T17:39:45.933Z,89.70
2023-03-19T17:42:20.421Z,90.00
2023-03-19T17:44:48.734Z,90.20
2023-03-19T17:47:18.801Z,90.20
2023-03-19T17:49:48.935Z,90.20
2023-03-19T17:52:18.588Z,90.30
2023-03-19T17:54:46.908Z,90.40
2023-03-19T17:57:16.444Z,90.40
2023-03-19T17:59:44.697Z,90.70
2023-03-19T18:02:27.675Z,90.70
2023-03-19T18:04:57.947Z,90.60
2023-03-19T18:07:26.330Z,90.60
2023-03-19T18:09:54.801Z,90.60
2023-03-19T18:12:23.141Z,90.50
2023-03-19T18:14:51.442Z,90.70
2023-03-19T18:17:20.438Z,90.70
2023-03-19T18:19:50.823Z,91.10
2023-03-19T18:22:21.691Z,91.70
2023-03-19T18:24:50.210Z,91.40
2023-03-19T18:27:18.567Z,91.50
2023-03-19T18:29:46.880Z,91.60
2023-03-19T18:32:21.345Z,91.80
2023-03-19T18:34:49.676Z,92.00
2023-03-19T18:37:19.097Z,92.20
2023-03-19T18:39:50.025Z,92.20
2023-03-19T18:42:19.315Z,92.30
2023-03-19T18:44:48.561Z,92.00
2023-03-19T18:47:17.533Z,92.40
2023-03-19T18:49:46.146Z,92.50
2023-03-19T18:52:19.078Z,92.90
2023-03-19T18:54:49.887Z,93.60
2023-03-19T18:57:18.729Z,93.90
2023-03-19T18:59:47.464Z,93.70
2023-03-19T19:02:31.521Z,93.80
2023-03-19T19:04:59.847Z,93.70
2023-03-19T19:07:28.245Z,93.60
2023-03-19T19:09:58.287Z,93.40
2023-03-19T19:12:27.743Z,93.50
2023-03-19T19:14:58.722Z,93.50
2023-03-19T19:17:29.564Z,93.60
2023-03-19T19:19:59.001Z,93.60
2023-03-19T19:22:29.791Z,93.70
2023-03-19T19:24:59.554Z,93.60
2023-03-19T19:27:29.178Z,93.50
2023-03-19T19:29:57.531Z,93.50
2023-03-19T19:32:28.668Z,93.20
2023-03-19T19:34:57.656Z,93.70
2023-03-19T19:37:26.165Z,93.40
2023-03-19T19:39:54.568Z,93.10
2023-03-19T19:42:24.611Z,93.00
2023-03-19T19:44:54.913Z,93.20
2023-03-19T19:47:23.613Z,93.20
2023-03-19T19:49:51.926Z,93.00
2023-03-19T19:52:21.241Z,93.30
2023-03-19T19:54:51.880Z,93.50
2023-03-19T19:57:23.010Z,93.90
2023-03-19T19:59:55.405Z,93.70
2023-03-19T20:02:25.936Z,94.10
2023-03-19T20:04:54.393Z,94.90
2023-03-19T20:07:23.154Z,95.00
2023-03-19T20:09:51.551Z,95.00
2023-03-19T20:12:21.733Z,94.90
2023-03-19T20:14:50.838Z,94.70
2023-03-19T20:17:22.061Z,94.50
2023-03-19T20:19:52.559Z,94.70
2023-03-19T20:22:21.153Z,94.70
2023-03-19T20:24:51.371Z,95.00
2023-03-19T20:27:23.339Z,95.40
2023-03-19T20:29:53.826Z,95.30
2023-03-19T20:32:34.278Z,95.00
2023-03-19T20:35:02.944Z,95.50
2023-03-19T20:37:31.985Z,95.50
2023-03-19T20:40:00.281Z,95.60
2023-03-19T20:42:31.211Z,95.80
2023-03-19T20:45:01.461Z,95.60
2023-03-19T20:47:33.417Z,96.10
2023-03-19T20:50:02.737Z,96.20
2023-03-19T20:52:31.221Z,96.50
2023-03-19T20:54:59.630Z,96.90
2023-03-19T20:57:30.784Z,97.30
2023-03-19T21:00:03.358Z,97.40
2023-03-19T21:02:33.129Z,97.40
2023-03-19T21:05:07.574Z,97.40
2023-03-19T21:07:36.156Z,97.30
2023-03-19T21:10:16.431Z,97.30
2023-03-19T21:12:44.955Z,96.90
2023-03-19T21:15:16.149Z,97.00
2023-03-19T21:17:46.544Z,97.20
2023-03-19T21:20:19.461Z,97.20
2023-03-19T21:22:49.850Z,96.80
2023-03-19T21:25:22.619Z,96.70
2023-03-19T21:27:55.300Z,96.80
2023-03-19T21:30:24.649Z,96.90
2023-03-19T21:32:57.165Z,97.30
2023-03-19T21:35:27.339Z,97.90
2023-03-19T21:37:55.924Z,98.00
2023-03-19T21:40:29.275Z,97.90
2023-03-19T21:43:00.938Z,98.20
2023-03-19T21:45:31.844Z,98.10
2023-03-19T21:48:13.382Z,98.20
2023-03-19T21:50:43.094Z,98.20
2023-03-19T21:53:12.205Z,98.30
2023-03-19T21:55:40.640Z,98.30
2023-03-19T21:58:12.454Z,98.80
2023-03-19T22:00:41.650Z,98.50
2023-03-19T22:03:17.693Z,98.80
2023-03-19T22:05:46.668Z,98.60
2023-03-19T22:08:16.202Z,99.80
2023-03-19T22:10:45.403Z,99.50
2023-03-19T22:13:21.708Z,99.50
2023-03-19T22:15:52.228Z,99.50
2023-03-19T22:18:22.846Z,99.50
2023-03-19T22:20:51.767Z,99.50
2023-03-19T22:23:21.086Z,99.60
2023-03-19T22:25:51.164Z,99.40
2023-03-19T22:28:24.275Z,99.30
2023-03-19T22:30:53.093Z,99.50
2023-03-19T22:33:24.536Z,99.60
2023-03-19T22:35:53.820Z,99.70
2023-03-19T22:38:24.146Z,99.70
2023-03-19T22:40:54.849Z,99.80
2023-03-19T22:43:29.145Z,99.70
2023-03-19T22:46:00.871Z,99.80
2023-03-19T22:48:30.841Z,99.90
2023-03-19T22:50:59.176Z,99.60
2023-03-19T22:53:30.539Z,99.90
2023-03-19T22:55:59.177Z,99.90
2023-03-19T22:58:28.833Z,99.70
2023-03-19T23:00:57.594Z,99.50
2023-03-19T23:03:28.276Z,99.70
2023-03-19T23:06:00.486Z,99.90
2023-03-19T23:08:28.851Z,99.90
2023-03-19T23:10:57.394Z,99.90
2023-03-19T23:13:25.887Z,99.80
2023-03-19T23:15:58.334Z,99.90
2023-03-19T23:18:31.030Z,99.90
2023-03-19T23:21:01.868Z,99.90
2023-03-19T23:23:31.708Z,99.90
2023-03-19T23:26:00.190Z,99.70
2023-03-19T23:28:32.055Z,99.90
2023-03-19T23:31:02.861Z,99.60
2023-03-19T23:33:31.298Z,99.90
2023-03-19T23:36:01.831Z,99.90
2023-03-19T23:38:30.090Z,99.90
2023-03-19T23:41:01.413Z,99.90
2023-03-19T23:43:30.937Z,99.90
2023-03-19T23:46:00.024Z,99.90
2023-03-19T23:48:33.675Z,99.90
2023-03-19T23:51:03.787Z,99.90
2023-03-19T23:53:32.308Z,99.90
2023-03-19T23:56:03.555Z,99.90
2023-03-19T23:58:39.929Z,99.90
